sensor_id;sensor_type;location;lat;lon;timestamp;temperature;humidity
12655;DHT22;6392;44.644;11.448;2023-05-27T00:00:05;24.20;99.90
12655;DHT22;6392;44.644;11.448;2023-05-27T00:02:33;24.20;99.90
12655;DHT22;6392;44.644;11.448;2023-05-27T00:05:00;24.20;99.90
12655;DHT22;6392;44.644;11.448;2023-05-27T00:07:27;24.20;99.90
12655;DHT22;6392;44.644;11.448;2023-05-27T00:09:54;24.20;99.90
12655;DHT22;6392;44.644;11.448;2023-05-27T00:12:21;24.20;99.90
12655;DHT22;6392;44.644;11.448;2023-05-27T00:14:48;24.20;99.90
12655;DHT22;6392;44.644;11.448;2023-05-27T00:17:15;24.20;99.90
12655;DHT22;6392;44.644;11.448;2023-05-27T00:19:44;24.20;99.90
12655;DHT22;6392;44.644;11.448;2023-05-27T00:22:13;24.10;99.90
12655;DHT22;6392;44.644;11.448;2023-05-27T00:24:40;24.10;99.90
12655;DHT22;6392;44.644;11.448;2023-05-27T00:27:07;24.10;99.90
12655;DHT22;6392;44.644;11.448;2023-05-27T00:29:34;24.10;99.90
12655;DHT22;6392;44.644;11.448;2023-05-27T00:32:01;24.10;99.90
12655;DHT22;6392;44.644;11.448;2023-05-27T00:34:28;24.10;99.90
12655;DHT22;6392;44.644;11.448;2023-05-27T00:36:56;24.00;99.90
12655;DHT22;6392;44.644;11.448;2023-05-27T00:39:23;24.00;99.90
12655;DHT22;6392;44.644;11.448;2023-05-27T00:41:50;24.00;99.90
12655;DHT22;6392;44.644;11.448;2023-05-27T00:44:17;24.00;99.90
12655;DHT22;6392;44.644;11.448;2023-05-27T00:46:46;24.00;99.90
12655;DHT22;6392;44.644;11.448;2023-05-27T00:49:13;24.00;99.90
12655;DHT22;6392;44.644;11.448;2023-05-27T00:51:41;23.90;99.90
12655;DHT22;6392;44.644;11.448;2023-05-27T00:54:10;23.90;99.90
12655;DHT22;6392;44.644;11.448;2023-05-27T00:56:37;23.90;99.90
12655;DHT22;6392;44.644;11.448;2023-05-27T00:59:04;23.90;99.90
12655;DHT22;6392;44.644;11.448;2023-05-27T01:01:31;23.90;99.90
12655;DHT22;6392;44.644;11.448;2023-05-27T01:03:59;23.90;99.90
12655;DHT22;6392;44.644;11.448;2023-05-27T01:06:28;23.90;99.90
12655;DHT22;6392;44.644;11.448;2023-05-27T01:09:03;23.90;99.90
12655;DHT22;6392;44.644;11.448;2023-05-27T01:11:34;23.90;99.90
12655;DHT22;6392;44.644;11.448;2023-05-27T01:14:05;24.00;99.90
12655;DHT22;6392;44.644;11.448;2023-05-27T01:16:32;24.10;99.90
12655;DHT22;6392;44.644;11.448;2023-05-27T01:19:00;24.20;99.90
12655;DHT22;6392;44.644;11.448;2023-05-27T01:21:29;24.30;99.90
12655;DHT22;6392;44.644;11.448;2023-05-27T01:24:03;24.30;99.90
12655;DHT22;6392;44.644;11.448;2023-05-27T01:26:30;24.40;99.90
12655;DHT22;6392;44.644;11.448;2023-05-27T01:28:57;24.50;99.90
12655;DHT22;6392;44.644;11.448;2023-05-27T01:31:30;24.50;99.90
12655;DHT22;6392;44.644;11.448;2023-05-27T01:33:58;24.50;99.90
12655;DHT22;6392;44.644;11.448;2023-05-27T01:36:27;24.50;99.90
12655;DHT22;6392;44.644;11.448;2023-05-27T01:38:55;24.40;99.90
12655;DHT22;6392;44.644;11.448;2023-05-27T01:41:24;24.30;99.90
12655;DHT22;6392;44.644;11.448;2023-05-27T01:43:52;24.10;99.90
12655;DHT22;6392;44.644;11.448;2023-05-27T01:46:19;24.00;99.90
12655;DHT22;6392;44.644;11.448;2023-05-27T01:48:46;23.80;99.90
12655;DHT22;6392;44.644;11.448;2023-05-27T01:51:13;23.70;99.90
12655;DHT22;6392;44.644;11.448;2023-05-27T01:53:40;23.60;99.90
12655;DHT22;6392;44.644;11.448;2023-05-27T01:56:07;23.50;99.90
12655;DHT22;6392;44.644;11.448;2023-05-27T01:58:35;23.40;99.90
12655;DHT22;6392;44.644;11.448;2023-05-27T02:01:02;23.30;99.90
12655;DHT22;6392;44.644;11.448;2023-05-27T02:03:29;23.30;99.90
12655;DHT22;6392;44.644;11.448;2023-05-27T02:05:56;23.30;99.90
12655;DHT22;6392;44.644;11.448;2023-05-27T02:08:22;23.30;99.90
12655;DHT22;6392;44.644;11.448;2023-05-27T02:10:49;23.30;99.90
12655;DHT22;6392;44.644;11.448;2023-05-27T02:13:16;23.20;99.90
12655;DHT22;6392;44.644;11.448;2023-05-27T02:15:44;23.20;99.90
12655;DHT22;6392;44.644;11.448;2023-05-27T02:18:11;23.20;99.90
12655;DHT22;6392;44.644;11.448;2023-05-27T02:20:38;23.20;99.90
12655;DHT22;6392;44.644;11.448;2023-05-27T02:23:06;23.10;99.90
12655;DHT22;6392;44.644;11.448;2023-05-27T02:25:33;23.10;99.90
12655;DHT22;6392;44.644;11.448;2023-05-27T02:27:59;23.10;99.90
12655;DHT22;6392;44.644;11.448;2023-05-27T02:30:28;23.10;99.90
12655;DHT22;6392;44.644;11.448;2023-05-27T02:32:56;23.10;99.90
12655;DHT22;6392;44.644;11.448;2023-05-27T02:35:23;23.00;99.90
12655;DHT22;6392;44.644;11.448;2023-05-27T02:37:50;23.00;99.90
12655;DHT22;6392;44.644;11.448;2023-05-27T02:40:23;23.00;99.90
12655;DHT22;6392;44.644;11.448;2023-05-27T02:42:49;23.00;99.90
12655;DHT22;6392;44.644;11.448;2023-05-27T02:45:17;23.00;99.90
12655;DHT22;6392;44.644;11.448;2023-05-27T02:47:43;23.00;99.90
12655;DHT22;6392;44.644;11.448;2023-05-27T02:50:12;23.00;99.90
12655;DHT22;6392;44.644;11.448;2023-05-27T02:52:38;22.90;99.90
12655;DHT22;6392;44.644;11.448;2023-05-27T02:55:06;22.90;99.90
12655;DHT22;6392;44.644;11.448;2023-05-27T02:57:33;22.90;99.90
12655;DHT22;6392;44.644;11.448;2023-05-27T03:00:00;22.90;99.90
12655;DHT22;6392;44.644;11.448;2023-05-27T03:02:27;22.90;99.90
12655;DHT22;6392;44.644;11.448;2023-05-27T03:04:54;22.80;99.90
12655;DHT22;6392;44.644;11.448;2023-05-27T03:07:23;22.80;99.90
12655;DHT22;6392;44.644;11.448;2023-05-27T03:09:50;22.80;99.90
12655;DHT22;6392;44.644;11.448;2023-05-27T03:12:17;22.70;99.90
12655;DHT22;6392;44.644;11.448;2023-05-27T03:14:43;22.70;99.90
12655;DHT22;6392;44.644;11.448;2023-05-27T03:17:10;22.70;99.90
12655;DHT22;6392;44.644;11.448;2023-05-27T03:19:37;22.60;99.90
12655;DHT22;6392;44.644;11.448;2023-05-27T03:22:04;22.60;99.90
12655;DHT22;6392;44.644;11.448;2023-05-27T03:24:33;22.60;99.90
12655;DHT22;6392;44.644;11.448;2023-05-27T03:27:00;22.60;99.90
12655;DHT22;6392;44.644;11.448;2023-05-27T03:29:28;22.60;99.90
12655;DHT22;6392;44.644;11.448;2023-05-27T03:31:56;22.60;99.90
12655;DHT22;6392;44.644;11.448;2023-05-27T03:34:22;22.60;99.90
12655;DHT22;6392;44.644;11.448;2023-05-27T03:36:49;22.60;99.90
12655;DHT22;6392;44.644;11.448;2023-05-27T03:39:16;22.50;99.90
12655;DHT22;6392;44.644;11.448;2023-05-27T03:41:44;22.50;99.90
12655;DHT22;6392;44.644;11.448;2023-05-27T03:44:11;22.50;99.90
12655;DHT22;6392;44.644;11.448;2023-05-27T03:46:38;22.50;99.90
12655;DHT22;6392;44.644;11.448;2023-05-27T03:49:05;22.50;99.90
12655;DHT22;6392;44.644;11.448;2023-05-27T03:51:32;22.50;99.90
12655;DHT22;6392;44.644;11.448;2023-05-27T03:53:58;22.50;99.90
12655;DHT22;6392;44.644;11.448;2023-05-27T03:56:25;22.50;99.90
12655;DHT22;6392;44.644;11.448;2023-05-27T03:58:53;22.50;99.90
12655;DHT22;6392;44.644;11.448;2023-05-27T04:01:21;22.50;99.90
12655;DHT22;6392;44.644;11.448;2023-05-27T04:03:48;22.50;99.90
12655;DHT22;6392;44.644;11.448;2023-05-27T04:06:15;22.40;99.90
12655;DHT22;6392;44.644;11.448;2023-05-27T04:08:41;22.40;99.90
12655;DHT22;6392;44.644;11.448;2023-05-27T04:11:09;22.40;99.90
12655;DHT22;6392;44.644;11.448;2023-05-27T04:13:36;22.40;99.90
12655;DHT22;6392;44.644;11.448;2023-05-27T04:16:05;22.40;99.90
12655;DHT22;6392;44.644;11.448;2023-05-27T04:18:32;22.40;99.90
12655;DHT22;6392;44.644;11.448;2023-05-27T04:20:59;22.40;99.90
12655;DHT22;6392;44.644;11.448;2023-05-27T04:23:26;22.30;99.90
12655;DHT22;6392;44.644;11.448;2023-05-27T04:25:52;22.30;99.90
12655;DHT22;6392;44.644;11.448;2023-05-27T04:28:19;22.30;99.90
12655;DHT22;6392;44.644;11.448;2023-05-27T04:30:47;22.30;99.90
12655;DHT22;6392;44.644;11.448;2023-05-27T04:33:17;22.30;99.90
12655;DHT22;6392;44.644;11.448;2023-05-27T04:35:44;22.30;99.90
12655;DHT22;6392;44.644;11.448;2023-05-27T04:38:10;22.30;99.90
12655;DHT22;6392;44.644;11.448;2023-05-27T04:40:41;22.30;99.90
12655;DHT22;6392;44.644;11.448;2023-05-27T04:43:10;22.20;99.90
12655;DHT22;6392;44.644;11.448;2023-05-27T04:45:37;22.20;99.90
12655;DHT22;6392;44.644;11.448;2023-05-27T04:48:04;22.20;99.90
12655;DHT22;6392;44.644;11.448;2023-05-27T04:50:33;22.20;99.90
12655;DHT22;6392;44.644;11.448;2023-05-27T04:53:00;22.20;99.90
12655;DHT22;6392;44.644;11.448;2023-05-27T04:55:27;22.20;99.90
12655;DHT22;6392;44.644;11.448;2023-05-27T04:57:54;22.20;99.90
12655;DHT22;6392;44.644;11.448;2023-05-27T05:00:22;22.20;99.90
12655;DHT22;6392;44.644;11.448;2023-05-27T05:03:01;22.20;99.90
12655;DHT22;6392;44.644;11.448;2023-05-27T05:05:29;22.20;99.90
12655;DHT22;6392;44.644;11.448;2023-05-27T05:07:57;22.20;99.90
12655;DHT22;6392;44.644;11.448;2023-05-27T05:10:24;22.30;99.90
12655;DHT22;6392;44.644;11.448;2023-05-27T05:12:51;22.30;99.90
12655;DHT22;6392;44.644;11.448;2023-05-27T05:15:18;22.30;99.90
12655;DHT22;6392;44.644;11.448;2023-05-27T05:17:45;22.30;99.90
12655;DHT22;6392;44.644;11.448;2023-05-27T05:20:12;22.30;99.90
12655;DHT22;6392;44.644;11.448;2023-05-27T05:22:38;22.30;99.90
12655;DHT22;6392;44.644;11.448;2023-05-27T05:25:07;22.30;99.90
12655;DHT22;6392;44.644;11.448;2023-05-27T05:27:34;22.40;99.90
12655;DHT22;6392;44.644;11.448;2023-05-27T05:30:02;22.40;99.90
12655;DHT22;6392;44.644;11.448;2023-05-27T05:32:29;22.40;99.90
12655;DHT22;6392;44.644;11.448;2023-05-27T05:34:55;22.40;99.90
12655;DHT22;6392;44.644;11.448;2023-05-27T05:37:22;22.40;99.90
12655;DHT22;6392;44.644;11.448;2023-05-27T05:39:49;22.40;99.90
12655;DHT22;6392;44.644;11.448;2023-05-27T05:42:17;22.50;99.90
12655;DHT22;6392;44.644;11.448;2023-05-27T05:44:44;22.50;99.90
12655;DHT22;6392;44.644;11.448;2023-05-27T05:47:11;22.50;99.90
12655;DHT22;6392;44.644;11.448;2023-05-27T05:49:38;22.50;99.90
12655;DHT22;6392;44.644;11.448;2023-05-27T05:52:04;22.60;99.90
12655;DHT22;6392;44.644;11.448;2023-05-27T05:54:31;22.60;99.90
12655;DHT22;6392;44.644;11.448;2023-05-27T05:56:58;22.60;99.90
12655;DHT22;6392;44.644;11.448;2023-05-27T05:59:27;22.60;99.90
12655;DHT22;6392;44.644;11.448;2023-05-27T06:01:54;22.60;99.90
12655;DHT22;6392;44.644;11.448;2023-05-27T06:04:20;22.60;99.90
12655;DHT22;6392;44.644;11.448;2023-05-27T06:06:47;22.60;99.90
12655;DHT22;6392;44.644;11.448;2023-05-27T06:09:14;22.70;99.90
12655;DHT22;6392;44.644;11.448;2023-05-27T06:11:40;22.70;99.90
12655;DHT22;6392;44.644;11.448;2023-05-27T06:14:07;22.70;99.90
12655;DHT22;6392;44.644;11.448;2023-05-27T06:16:35;22.70;99.90
12655;DHT22;6392;44.644;11.448;2023-05-27T06:19:04;22.60;99.90
12655;DHT22;6392;44.644;11.448;2023-05-27T06:21:31;22.60;99.90
12655;DHT22;6392;44.644;11.448;2023-05-27T06:23:59;22.60;99.90
12655;DHT22;6392;44.644;11.448;2023-05-27T06:26:25;22.60;99.90
12655;DHT22;6392;44.644;11.448;2023-05-27T06:28:53;22.60;99.90
12655;DHT22;6392;44.644;11.448;2023-05-27T06:31:20;22.60;99.90
12655;DHT22;6392;44.644;11.448;2023-05-27T06:33:48;22.70;99.90
12655;DHT22;6392;44.644;11.448;2023-05-27T06:36:15;22.70;99.90
12655;DHT22;6392;44.644;11.448;2023-05-27T06:38:41;22.70;99.90
12655;DHT22;6392;44.644;11.448;2023-05-27T06:41:08;22.80;99.90
12655;DHT22;6392;44.644;11.448;2023-05-27T06:43:35;22.80;99.90
12655;DHT22;6392;44.644;11.448;2023-05-27T06:46:02;22.80;99.90
12655;DHT22;6392;44.644;11.448;2023-05-27T06:48:29;22.80;99.90
12655;DHT22;6392;44.644;11.448;2023-05-27T06:50:57;22.80;99.90
12655;DHT22;6392;44.644;11.448;2023-05-27T06:53:23;22.90;99.90
12655;DHT22;6392;44.644;11.448;2023-05-27T06:55:50;22.90;99.90
12655;DHT22;6392;44.644;11.448;2023-05-27T06:58:17;22.90;99.90
12655;DHT22;6392;44.644;11.448;2023-05-27T07:00:44;22.90;99.90
12655;DHT22;6392;44.644;11.448;2023-05-27T07:03:10;23.00;99.90
12655;DHT22;6392;44.644;11.448;2023-05-27T07:05:37;23.00;99.90
12655;DHT22;6392;44.644;11.448;2023-05-27T07:08:05;23.10;99.90
12655;DHT22;6392;44.644;11.448;2023-05-27T07:10:32;23.10;99.90
12655;DHT22;6392;44.644;11.448;2023-05-27T07:12:59;23.10;99.90
12655;DHT22;6392;44.644;11.448;2023-05-27T07:15:26;23.20;99.90
12655;DHT22;6392;44.644;11.448;2023-05-27T07:17:53;23.20;99.90
12655;DHT22;6392;44.644;11.448;2023-05-27T07:20:20;23.20;99.90
12655;DHT22;6392;44.644;11.448;2023-05-27T07:22:47;23.30;99.90
12655;DHT22;6392;44.644;11.448;2023-05-27T07:25:15;23.30;99.90
12655;DHT22;6392;44.644;11.448;2023-05-27T07:27:41;23.30;99.90
12655;DHT22;6392;44.644;11.448;2023-05-27T07:30:09;23.30;99.90
12655;DHT22;6392;44.644;11.448;2023-05-27T07:32:36;23.30;99.90
12655;DHT22;6392;44.644;11.448;2023-05-27T07:35:03;23.30;99.90
12655;DHT22;6392;44.644;11.448;2023-05-27T07:37:30;23.40;99.90
12655;DHT22;6392;44.644;11.448;2023-05-27T07:39:56;23.50;99.90
12655;DHT22;6392;44.644;11.448;2023-05-27T07:42:25;23.50;99.90
12655;DHT22;6392;44.644;11.448;2023-05-27T07:44:51;23.50;99.90
12655;DHT22;6392;44.644;11.448;2023-05-27T07:47:19;23.50;99.90
12655;DHT22;6392;44.644;11.448;2023-05-27T07:49:46;23.60;99.90
12655;DHT22;6392;44.644;11.448;2023-05-27T07:52:13;23.60;99.90
12655;DHT22;6392;44.644;11.448;2023-05-27T07:54:40;23.60;99.90
12655;DHT22;6392;44.644;11.448;2023-05-27T07:57:06;23.60;99.90
12655;DHT22;6392;44.644;11.448;2023-05-27T07:59:35;23.60;99.90
12655;DHT22;6392;44.644;11.448;2023-05-27T08:02:01;23.60;99.90
12655;DHT22;6392;44.644;11.448;2023-05-27T08:04:28;23.70;99.90
12655;DHT22;6392;44.644;11.448;2023-05-27T08:06:55;23.70;99.90
12655;DHT22;6392;44.644;11.448;2023-05-27T08:09:22;23.60;99.90
12655;DHT22;6392;44.644;11.448;2023-05-27T08:11:48;23.60;99.90
12655;DHT22;6392;44.644;11.448;2023-05-27T08:14:15;23.60;99.90
12655;DHT22;6392;44.644;11.448;2023-05-27T08:16:43;23.70;99.90
12655;DHT22;6392;44.644;11.448;2023-05-27T08:19:10;23.70;99.90
12655;DHT22;6392;44.644;11.448;2023-05-27T08:21:37;23.70;99.90
12655;DHT22;6392;44.644;11.448;2023-05-27T08:24:04;23.70;99.90
12655;DHT22;6392;44.644;11.448;2023-05-27T08:26:31;23.70;99.90
12655;DHT22;6392;44.644;11.448;2023-05-27T08:28:57;23.80;99.90
12655;DHT22;6392;44.644;11.448;2023-05-27T08:31:24;23.70;99.90
12655;DHT22;6392;44.644;11.448;2023-05-27T08:33:52;23.80;99.90
12655;DHT22;6392;44.644;11.448;2023-05-27T08:36:19;23.80;99.90
12655;DHT22;6392;44.644;11.448;2023-05-27T08:38:46;23.80;99.90
12655;DHT22;6392;44.644;11.448;2023-05-27T08:41:13;23.80;99.90
12655;DHT22;6392;44.644;11.448;2023-05-27T08:43:40;23.80;99.90
12655;DHT22;6392;44.644;11.448;2023-05-27T08:46:07;23.80;99.90
12655;DHT22;6392;44.644;11.448;2023-05-27T08:48:34;23.90;99.90
12655;DHT22;6392;44.644;11.448;2023-05-27T08:51:02;23.90;99.90
12655;DHT22;6392;44.644;11.448;2023-05-27T08:53:30;23.90;99.90
12655;DHT22;6392;44.644;11.448;2023-05-27T08:55:57;23.90;99.90
12655;DHT22;6392;44.644;11.448;2023-05-27T08:58:26;23.90;99.90
12655;DHT22;6392;44.644;11.448;2023-05-27T09:00:53;23.90;99.90
12655;DHT22;6392;44.644;11.448;2023-05-27T09:03:20;24.00;99.90
12655;DHT22;6392;44.644;11.448;2023-05-27T09:05:48;24.00;99.90
12655;DHT22;6392;44.644;11.448;2023-05-27T09:08:16;24.00;99.90
12655;DHT22;6392;44.644;11.448;2023-05-27T09:10:43;24.10;99.90
12655;DHT22;6392;44.644;11.448;2023-05-27T09:13:09;24.10;99.90
12655;DHT22;6392;44.644;11.448;2023-05-27T09:15:36;24.10;99.90
12655;DHT22;6392;44.644;11.448;2023-05-27T09:18:05;24.10;99.90
12655;DHT22;6392;44.644;11.448;2023-05-27T09:20:31;24.10;99.90
12655;DHT22;6392;44.644;11.448;2023-05-27T09:22:59;24.10;99.90
12655;DHT22;6392;44.644;11.448;2023-05-27T09:25:27;24.10;99.90
12655;DHT22;6392;44.644;11.448;2023-05-27T09:27:54;24.10;99.90
12655;DHT22;6392;44.644;11.448;2023-05-27T09:30:22;24.20;99.90
12655;DHT22;6392;44.644;11.448;2023-05-27T09:32:49;24.20;99.90
12655;DHT22;6392;44.644;11.448;2023-05-27T09:35:16;24.20;99.90
12655;DHT22;6392;44.644;11.448;2023-05-27T09:37:44;24.20;99.90
12655;DHT22;6392;44.644;11.448;2023-05-27T09:40:11;24.30;99.90
12655;DHT22;6392;44.644;11.448;2023-05-27T09:42:41;24.30;99.90
12655;DHT22;6392;44.644;11.448;2023-05-27T09:45:08;24.40;99.90
12655;DHT22;6392;44.644;11.448;2023-05-27T09:47:37;24.40;99.90
12655;DHT22;6392;44.644;11.448;2023-05-27T09:50:05;24.50;99.90
12655;DHT22;6392;44.644;11.448;2023-05-27T09:52:34;24.50;99.90
12655;DHT22;6392;44.644;11.448;2023-05-27T09:55:02;24.50;99.90
12655;DHT22;6392;44.644;11.448;2023-05-27T09:57:29;24.50;99.90
12655;DHT22;6392;44.644;11.448;2023-05-27T09:59:57;24.60;99.90
12655;DHT22;6392;44.644;11.448;2023-05-27T10:02:25;24.60;99.90
12655;DHT22;6392;44.644;11.448;2023-05-27T10:04:52;24.60;99.90
12655;DHT22;6392;44.644;11.448;2023-05-27T10:07:19;24.60;99.90
12655;DHT22;6392;44.644;11.448;2023-05-27T10:09:48;24.60;99.90
12655;DHT22;6392;44.644;11.448;2023-05-27T10:12:16;24.60;99.90
12655;DHT22;6392;44.644;11.448;2023-05-27T10:14:43;24.60;99.90
12655;DHT22;6392;44.644;11.448;2023-05-27T10:17:13;24.60;99.90
12655;DHT22;6392;44.644;11.448;2023-05-27T10:19:53;24.60;99.90
12655;DHT22;6392;44.644;11.448;2023-05-27T10:22:21;24.60;99.90
12655;DHT22;6392;44.644;11.448;2023-05-27T10:24:48;24.60;99.90
12655;DHT22;6392;44.644;11.448;2023-05-27T10:27:15;24.60;99.90
12655;DHT22;6392;44.644;11.448;2023-05-27T10:29:42;24.70;99.90
12655;DHT22;6392;44.644;11.448;2023-05-27T10:32:09;24.70;99.90
12655;DHT22;6392;44.644;11.448;2023-05-27T10:34:42;24.70;99.90
12655;DHT22;6392;44.644;11.448;2023-05-27T10:37:11;24.70;99.90
12655;DHT22;6392;44.644;11.448;2023-05-27T10:39:52;24.70;99.90
12655;DHT22;6392;44.644;11.448;2023-05-27T10:42:21;24.70;99.90
12655;DHT22;6392;44.644;11.448;2023-05-27T10:44:49;24.80;99.90
12655;DHT22;6392;44.644;11.448;2023-05-27T10:47:18;24.70;99.90
12655;DHT22;6392;44.644;11.448;2023-05-27T10:49:56;24.80;99.90
12655;DHT22;6392;44.644;11.448;2023-05-27T10:52:23;24.80;99.90
12655;DHT22;6392;44.644;11.448;2023-05-27T10:54:52;24.80;99.90
12655;DHT22;6392;44.644;11.448;2023-05-27T10:57:19;24.80;99.90
12655;DHT22;6392;44.644;11.448;2023-05-27T10:59:48;24.90;99.90
12655;DHT22;6392;44.644;11.448;2023-05-27T11:02:15;24.90;99.90
12655;DHT22;6392;44.644;11.448;2023-05-27T11:04:42;24.90;99.90
12655;DHT22;6392;44.644;11.448;2023-05-27T11:07:10;25.00;99.90
12655;DHT22;6392;44.644;11.448;2023-05-27T11:09:43;25.10;99.90
12655;DHT22;6392;44.644;11.448;2023-05-27T11:12:12;25.10;99.90
12655;DHT22;6392;44.644;11.448;2023-05-27T11:14:41;25.10;99.90
12655;DHT22;6392;44.644;11.448;2023-05-27T11:17:09;25.10;99.90
12655;DHT22;6392;44.644;11.448;2023-05-27T11:19:37;25.10;99.90
12655;DHT22;6392;44.644;11.448;2023-05-27T11:22:04;25.10;99.90
12655;DHT22;6392;44.644;11.448;2023-05-27T11:24:32;25.10;99.90
12655;DHT22;6392;44.644;11.448;2023-05-27T11:27:00;25.20;99.90
12655;DHT22;6392;44.644;11.448;2023-05-27T11:29:28;25.30;99.90
12655;DHT22;6392;44.644;11.448;2023-05-27T11:31:57;25.30;99.90
12655;DHT22;6392;44.644;11.448;2023-05-27T11:34:23;25.30;99.90
12655;DHT22;6392;44.644;11.448;2023-05-27T11:36:50;25.30;99.90
12655;DHT22;6392;44.644;11.448;2023-05-27T11:39:17;25.30;99.90
12655;DHT22;6392;44.644;11.448;2023-05-27T11:41:50;25.30;99.90
12655;DHT22;6392;44.644;11.448;2023-05-27T11:44:17;25.30;99.90
12655;DHT22;6392;44.644;11.448;2023-05-27T11:46:45;25.30;99.90
12655;DHT22;6392;44.644;11.448;2023-05-27T11:49:12;25.30;99.90
12655;DHT22;6392;44.644;11.448;2023-05-27T11:51:39;25.30;99.90
12655;DHT22;6392;44.644;11.448;2023-05-27T11:54:07;25.30;99.90
12655;DHT22;6392;44.644;11.448;2023-05-27T11:56:33;25.30;99.90
12655;DHT22;6392;44.644;11.448;2023-05-27T11:59:02;25.30;99.90
12655;DHT22;6392;44.644;11.448;2023-05-27T12:01:28;25.30;99.90
12655;DHT22;6392;44.644;11.448;2023-05-27T12:03:55;25.40;99.90
12655;DHT22;6392;44.644;11.448;2023-05-27T12:06:22;25.40;99.90
12655;DHT22;6392;44.644;11.448;2023-05-27T12:08:49;25.40;99.90
12655;DHT22;6392;44.644;11.448;2023-05-27T12:11:16;25.40;99.90
12655;DHT22;6392;44.644;11.448;2023-05-27T12:13:42;25.40;99.90
12655;DHT22;6392;44.644;11.448;2023-05-27T12:16:11;25.50;99.90
12655;DHT22;6392;44.644;11.448;2023-05-27T12:18:37;25.60;99.90
12655;DHT22;6392;44.644;11.448;2023-05-27T12:21:06;25.60;99.90
12655;DHT22;6392;44.644;11.448;2023-05-27T12:23:33;25.70;99.90
12655;DHT22;6392;44.644;11.448;2023-05-27T12:26:00;25.70;99.90
12655;DHT22;6392;44.644;11.448;2023-05-27T12:28:27;25.70;99.90
12655;DHT22;6392;44.644;11.448;2023-05-27T12:30:54;25.80;99.90
12655;DHT22;6392;44.644;11.448;2023-05-27T12:33:23;25.90;99.90
12655;DHT22;6392;44.644;11.448;2023-05-27T12:35:50;25.90;99.90
12655;DHT22;6392;44.644;11.448;2023-05-27T12:38:17;26.10;99.90
12655;DHT22;6392;44.644;11.448;2023-05-27T12:40:44;26.10;99.90
12655;DHT22;6392;44.644;11.448;2023-05-27T12:43:10;26.10;99.90
12655;DHT22;6392;44.644;11.448;2023-05-27T12:45:37;26.20;99.90
12655;DHT22;6392;44.644;11.448;2023-05-27T12:48:04;26.30;99.90
12655;DHT22;6392;44.644;11.448;2023-05-27T12:50:32;26.40;99.90
12655;DHT22;6392;44.644;11.448;2023-05-27T12:52:59;26.50;99.90
12655;DHT22;6392;44.644;11.448;2023-05-27T12:55:26;26.60;99.90
12655;DHT22;6392;44.644;11.448;2023-05-27T12:57:53;26.80;99.90
12655;DHT22;6392;44.644;11.448;2023-05-27T13:00:20;26.90;99.90
12655;DHT22;6392;44.644;11.448;2023-05-27T13:02:47;27.10;99.90
12655;DHT22;6392;44.644;11.448;2023-05-27T13:05:14;27.20;99.90
12655;DHT22;6392;44.644;11.448;2023-05-27T13:07:52;27.20;99.90
12655;DHT22;6392;44.644;11.448;2023-05-27T13:10:19;27.20;99.90
12655;DHT22;6392;44.644;11.448;2023-05-27T13:12:47;27.30;99.90
12655;DHT22;6392;44.644;11.448;2023-05-27T13:15:13;27.40;99.90
12655;DHT22;6392;44.644;11.448;2023-05-27T13:17:41;27.50;99.90
12655;DHT22;6392;44.644;11.448;2023-05-27T13:20:08;27.40;99.90
12655;DHT22;6392;44.644;11.448;2023-05-27T13:22:35;27.30;99.90
12655;DHT22;6392;44.644;11.448;2023-05-27T13:25:04;27.30;99.90
12655;DHT22;6392;44.644;11.448;2023-05-27T13:27:31;27.30;99.90
12655;DHT22;6392;44.644;11.448;2023-05-27T13:29:57;27.30;99.90
12655;DHT22;6392;44.644;11.448;2023-05-27T13:32:24;27.40;99.90
12655;DHT22;6392;44.644;11.448;2023-05-27T13:34:51;27.60;99.90
12655;DHT22;6392;44.644;11.448;2023-05-27T13:37:20;27.80;99.90
12655;DHT22;6392;44.644;11.448;2023-05-27T13:39:47;27.90;99.90
12655;DHT22;6392;44.644;11.448;2023-05-27T13:42:15;27.80;99.90
12655;DHT22;6392;44.644;11.448;2023-05-27T13:44:42;27.70;99.90
12655;DHT22;6392;44.644;11.448;2023-05-27T13:47:08;27.60;99.90
12655;DHT22;6392;44.644;11.448;2023-05-27T13:49:35;27.60;99.90
12655;DHT22;6392;44.644;11.448;2023-05-27T13:52:02;27.60;99.90
12655;DHT22;6392;44.644;11.448;2023-05-27T13:54:29;27.70;99.90
12655;DHT22;6392;44.644;11.448;2023-05-27T13:56:56;27.70;99.90
12655;DHT22;6392;44.644;11.448;2023-05-27T13:59:24;27.80;99.90
12655;DHT22;6392;44.644;11.448;2023-05-27T14:01:51;27.90;99.90
12655;DHT22;6392;44.644;11.448;2023-05-27T14:04:19;28.00;99.90
12655;DHT22;6392;44.644;11.448;2023-05-27T14:06:46;28.10;99.90
12655;DHT22;6392;44.644;11.448;2023-05-27T14:09:13;28.10;99.90
12655;DHT22;6392;44.644;11.448;2023-05-27T14:11:40;28.20;99.90
12655;DHT22;6392;44.644;11.448;2023-05-27T14:14:07;28.30;99.90
12655;DHT22;6392;44.644;11.448;2023-05-27T14:16:35;28.40;99.90
12655;DHT22;6392;44.644;11.448;2023-05-27T14:19:02;28.50;99.90
12655;DHT22;6392;44.644;11.448;2023-05-27T14:21:29;28.80;99.90
12655;DHT22;6392;44.644;11.448;2023-05-27T14:23:56;29.00;99.90
12655;DHT22;6392;44.644;11.448;2023-05-27T14:26:22;29.00;99.90
12655;DHT22;6392;44.644;11.448;2023-05-27T14:28:49;28.90;99.90
12655;DHT22;6392;44.644;11.448;2023-05-27T14:31:16;28.90;99.90
12655;DHT22;6392;44.644;11.448;2023-05-27T14:33:44;28.80;99.90
12655;DHT22;6392;44.644;11.448;2023-05-27T14:36:11;28.90;99.90
12655;DHT22;6392;44.644;11.448;2023-05-27T14:38:38;29.00;99.90
12655;DHT22;6392;44.644;11.448;2023-05-27T14:41:04;29.00;99.90
12655;DHT22;6392;44.644;11.448;2023-05-27T14:43:31;29.10;99.90
12655;DHT22;6392;44.644;11.448;2023-05-27T14:45:58;29.20;99.90
12655;DHT22;6392;44.644;11.448;2023-05-27T14:48:25;29.10;99.90
12655;DHT22;6392;44.644;11.448;2023-05-27T14:50:53;29.10;99.90
12655;DHT22;6392;44.644;11.448;2023-05-27T14:53:20;29.10;99.90
12655;DHT22;6392;44.644;11.448;2023-05-27T14:55:46;29.10;99.90
12655;DHT22;6392;44.644;11.448;2023-05-27T14:58:15;29.10;99.90
12655;DHT22;6392;44.644;11.448;2023-05-27T15:00:42;29.10;99.90
12655;DHT22;6392;44.644;11.448;2023-05-27T15:03:09;29.30;99.90
12655;DHT22;6392;44.644;11.448;2023-05-27T15:05:35;29.40;99.90
12655;DHT22;6392;44.644;11.448;2023-05-27T15:08:03;29.60;99.90
12655;DHT22;6392;44.644;11.448;2023-05-27T15:10:33;29.70;99.90
12655;DHT22;6392;44.644;11.448;2023-05-27T15:13:00;29.80;99.90
12655;DHT22;6392;44.644;11.448;2023-05-27T15:15:27;30.00;99.90
12655;DHT22;6392;44.644;11.448;2023-05-27T15:17:53;30.10;99.90
12655;DHT22;6392;44.644;11.448;2023-05-27T15:20:20;29.90;99.90
12655;DHT22;6392;44.644;11.448;2023-05-27T15:22:47;29.80;99.90
12655;DHT22;6392;44.644;11.448;2023-05-27T15:25:15;29.80;99.90
12655;DHT22;6392;44.644;11.448;2023-05-27T15:27:42;29.80;99.90
12655;DHT22;6392;44.644;11.448;2023-05-27T15:30:10;29.80;99.90